Methven, United Kingdom
Current Conditions -  °F | °C
As of 1:20 PM on Thursday 30 Oct 2014 (Local Time) from EGPN Reporting Station
Broken Clouds Broken Clouds  
Wind Chill: 52°   Ceiling: 1700
Heat Index: 52°   Visibility: 6mi
Dew Point: 52°   Wind: 2mph
Humidity: 100%   Direction: 170°S
Pressure: 29.88"   Gusts: NA
Location:  56.42°N, 3.58°W
Report Text: EGPN 301320Z 17002KT 9999 SCT007 BKN017 11/11 Q1012
Loading
Personal Weather Stations






























Interactive Weather Map
Tropical Storm Tracking
New forecast layout! Learn more

10-Day Weather Forecast

Advertisements
Track Severe Weather on mobile